sensor_id;sensor_type;location;lat;lon;timestamp;temperature;humidity
54429;DHT22;40337;52.978;6.310;2023-04-01T00:01:04;10.40;99.90
54429;DHT22;40337;52.978;6.310;2023-04-01T00:03:31;10.40;99.90
54429;DHT22;40337;52.978;6.310;2023-04-01T00:05:59;10.40;99.90
54429;DHT22;40337;52.978;6.310;2023-04-01T00:08:26;10.50;99.90
54429;DHT22;40337;52.978;6.310;2023-04-01T00:10:52;10.40;99.90
54429;DHT22;40337;52.978;6.310;2023-04-01T00:13:18;10.50;99.90
54429;DHT22;40337;52.978;6.310;2023-04-01T00:15:44;10.40;99.90
54429;DHT22;40337;52.978;6.310;2023-04-01T00:18:10;10.40;99.90
54429;DHT22;40337;52.978;6.310;2023-04-01T00:20:36;10.40;99.90
54429;DHT22;40337;52.978;6.310;2023-04-01T00:23:02;10.40;99.90
54429;DHT22;40337;52.978;6.310;2023-04-01T00:25:28;10.40;99.90
54429;DHT22;40337;52.978;6.310;2023-04-01T00:27:54;10.40;99.90
54429;DHT22;40337;52.978;6.310;2023-04-01T00:30:19;10.40;99.90
54429;DHT22;40337;52.978;6.310;2023-04-01T00:32:45;10.40;99.90
54429;DHT22;40337;52.978;6.310;2023-04-01T00:35:11;10.40;99.90
54429;DHT22;40337;52.978;6.310;2023-04-01T00:37:38;10.40;99.90
54429;DHT22;40337;52.978;6.310;2023-04-01T00:40:06;10.40;99.90
54429;DHT22;40337;52.978;6.310;2023-04-01T00:42:33;10.30;99.90
54429;DHT22;40337;52.978;6.310;2023-04-01T00:44:58;10.40;99.90
54429;DHT22;40337;52.978;6.310;2023-04-01T00:47:25;10.40;99.90
54429;DHT22;40337;52.978;6.310;2023-04-01T00:49:52;10.40;99.90
54429;DHT22;40337;52.978;6.310;2023-04-01T00:52:23;10.30;99.90
54429;DHT22;40337;52.978;6.310;2023-04-01T00:54:53;10.30;99.90
54429;DHT22;40337;52.978;6.310;2023-04-01T00:57:33;10.40;99.90
54429;DHT22;40337;52.978;6.310;2023-04-01T01:00:00;10.40;99.90
54429;DHT22;40337;52.978;6.310;2023-04-01T01:02:25;10.30;99.90
54429;DHT22;40337;52.978;6.310;2023-04-01T01:04:51;10.30;99.90
54429;DHT22;40337;52.978;6.310;2023-04-01T01:07:32;10.30;99.90
54429;DHT22;40337;52.978;6.310;2023-04-01T01:10:17;10.30;99.90
54429;DHT22;40337;52.978;6.310;2023-04-01T01:12:55;10.30;99.90
54429;DHT22;40337;52.978;6.310;2023-04-01T01:15:28;10.30;99.90
54429;DHT22;40337;52.978;6.310;2023-04-01T01:17:58;10.30;99.90
54429;DHT22;40337;52.978;6.310;2023-04-01T01:24:22;10.30;99.90
54429;DHT22;40337;52.978;6.310;2023-04-01T01:37:21;10.20;99.90
54429;DHT22;40337;52.978;6.310;2023-04-01T01:39:52;10.20;99.90
54429;DHT22;40337;52.978;6.310;2023-04-01T01:42:19;10.20;99.90
54429;DHT22;40337;52.978;6.310;2023-04-01T01:44:47;10.20;99.90
54429;DHT22;40337;52.978;6.310;2023-04-01T01:47:15;10.20;99.90
54429;DHT22;40337;52.978;6.310;2023-04-01T01:49:43;10.10;99.90
54429;DHT22;40337;52.978;6.310;2023-04-01T01:52:11;10.20;99.90
54429;DHT22;40337;52.978;6.310;2023-04-01T01:54:45;10.10;99.90
54429;DHT22;40337;52.978;6.310;2023-04-01T01:57:11;10.20;99.90
54429;DHT22;40337;52.978;6.310;2023-04-01T01:59:38;10.10;99.90
54429;DHT22;40337;52.978;6.310;2023-04-01T02:02:06;10.00;99.90
54429;DHT22;40337;52.978;6.310;2023-04-01T02:04:39;10.00;99.90
54429;DHT22;40337;52.978;6.310;2023-04-01T02:07:21;10.10;99.90
54429;DHT22;40337;52.978;6.310;2023-04-01T02:09:48;10.10;99.90
54429;DHT22;40337;52.978;6.310;2023-04-01T02:12:15;10.00;99.90
54429;DHT22;40337;52.978;6.310;2023-04-01T02:15:03;10.10;99.90
54429;DHT22;40337;52.978;6.310;2023-04-01T02:17:31;10.10;99.90
54429;DHT22;40337;52.978;6.310;2023-04-01T02:20:07;10.10;99.90
54429;DHT22;40337;52.978;6.310;2023-04-01T02:22:38;10.10;99.90
54429;DHT22;40337;52.978;6.310;2023-04-01T02:25:13;10.10;99.90
54429;DHT22;40337;52.978;6.310;2023-04-01T02:27:43;10.00;99.90
54429;DHT22;40337;52.978;6.310;2023-04-01T02:30:10;10.00;99.90
54429;DHT22;40337;52.978;6.310;2023-04-01T02:32:37;10.00;99.90
54429;DHT22;40337;52.978;6.310;2023-04-01T02:35:06;10.00;99.90
54429;DHT22;40337;52.978;6.310;2023-04-01T02:37:32;10.00;99.90
54429;DHT22;40337;52.978;6.310;2023-04-01T02:40:02;10.00;99.90
54429;DHT22;40337;52.978;6.310;2023-04-01T02:42:28;10.00;99.90
54429;DHT22;40337;52.978;6.310;2023-04-01T02:44:54;9.90;99.90
54429;DHT22;40337;52.978;6.310;2023-04-01T02:47:19;10.00;99.90
54429;DHT22;40337;52.978;6.310;2023-04-01T02:49:45;9.90;99.90
54429;DHT22;40337;52.978;6.310;2023-04-01T02:52:10;9.90;99.90
54429;DHT22;40337;52.978;6.310;2023-04-01T02:54:36;9.90;99.90
54429;DHT22;40337;52.978;6.310;2023-04-01T02:57:01;9.90;99.90
54429;DHT22;40337;52.978;6.310;2023-04-01T02:59:27;9.90;99.90
54429;DHT22;40337;52.978;6.310;2023-04-01T03:01:53;9.90;99.90
54429;DHT22;40337;52.978;6.310;2023-04-01T03:04:18;10.00;99.90
54429;DHT22;40337;52.978;6.310;2023-04-01T03:06:44;10.00;99.90
54429;DHT22;40337;52.978;6.310;2023-04-01T03:09:09;9.90;99.90
54429;DHT22;40337;52.978;6.310;2023-04-01T03:11:35;10.00;99.90
54429;DHT22;40337;52.978;6.310;2023-04-01T03:14:01;10.00;99.90
54429;DHT22;40337;52.978;6.310;2023-04-01T03:16:26;10.00;99.90
54429;DHT22;40337;52.978;6.310;2023-04-01T03:18:52;10.00;99.90
54429;DHT22;40337;52.978;6.310;2023-04-01T03:21:23;10.00;99.90
54429;DHT22;40337;52.978;6.310;2023-04-01T03:23:49;9.90;99.90
54429;DHT22;40337;52.978;6.310;2023-04-01T03:26:15;10.00;99.90
54429;DHT22;40337;52.978;6.310;2023-04-01T03:28:41;10.00;99.90
54429;DHT22;40337;52.978;6.310;2023-04-01T03:31:07;10.00;99.90
54429;DHT22;40337;52.978;6.310;2023-04-01T03:33:32;10.00;99.90
54429;DHT22;40337;52.978;6.310;2023-04-01T03:35:58;10.00;99.90
54429;DHT22;40337;52.978;6.310;2023-04-01T03:38:24;10.00;99.90
54429;DHT22;40337;52.978;6.310;2023-04-01T03:40:50;10.00;99.90
54429;DHT22;40337;52.978;6.310;2023-04-01T03:43:15;10.00;99.90
54429;DHT22;40337;52.978;6.310;2023-04-01T03:45:46;10.00;99.90
54429;DHT22;40337;52.978;6.310;2023-04-01T03:48:13;9.90;99.90
54429;DHT22;40337;52.978;6.310;2023-04-01T03:50:38;10.00;99.90
54429;DHT22;40337;52.978;6.310;2023-04-01T03:53:04;10.00;99.90
54429;DHT22;40337;52.978;6.310;2023-04-01T03:55:30;10.00;99.90
54429;DHT22;40337;52.978;6.310;2023-04-01T03:57:55;10.00;99.90
54429;DHT22;40337;52.978;6.310;2023-04-01T04:00:21;9.90;99.90
54429;DHT22;40337;52.978;6.310;2023-04-01T04:02:47;9.90;99.90
54429;DHT22;40337;52.978;6.310;2023-04-01T04:05:12;9.90;99.90
54429;DHT22;40337;52.978;6.310;2023-04-01T04:07:38;9.90;99.90
54429;DHT22;40337;52.978;6.310;2023-04-01T04:10:04;9.80;99.90
54429;DHT22;40337;52.978;6.310;2023-04-01T04:12:30;9.80;99.90
54429;DHT22;40337;52.978;6.310;2023-04-01T04:14:56;9.80;99.90
54429;DHT22;40337;52.978;6.310;2023-04-01T04:17:21;9.80;99.90
54429;DHT22;40337;52.978;6.310;2023-04-01T04:19:47;9.80;99.90
54429;DHT22;40337;52.978;6.310;2023-04-01T04:22:13;9.80;99.90
54429;DHT22;40337;52.978;6.310;2023-04-01T04:24:38;9.90;99.90
54429;DHT22;40337;52.978;6.310;2023-04-01T04:27:04;9.90;99.90
54429;DHT22;40337;52.978;6.310;2023-04-01T04:29:30;9.80;99.90
54429;DHT22;40337;52.978;6.310;2023-04-01T04:31:55;9.80;99.90
54429;DHT22;40337;52.978;6.310;2023-04-01T04:34:21;9.90;99.90
54429;DHT22;40337;52.978;6.310;2023-04-01T04:36:48;9.90;99.90
54429;DHT22;40337;52.978;6.310;2023-04-01T04:39:14;9.80;99.90
54429;DHT22;40337;52.978;6.310;2023-04-01T04:41:40;9.80;99.90
54429;DHT22;40337;52.978;6.310;2023-04-01T04:44:06;9.90;99.90
54429;DHT22;40337;52.978;6.310;2023-04-01T04:46:31;9.90;99.90
54429;DHT22;40337;52.978;6.310;2023-04-01T04:48:57;9.90;99.90
54429;DHT22;40337;52.978;6.310;2023-04-01T04:51:23;9.90;99.90
54429;DHT22;40337;52.978;6.310;2023-04-01T04:53:49;9.90;99.90
54429;DHT22;40337;52.978;6.310;2023-04-01T04:56:22;10.00;99.90
54429;DHT22;40337;52.978;6.310;2023-04-01T04:58:48;9.90;99.90
54429;DHT22;40337;52.978;6.310;2023-04-01T05:01:15;9.90;99.90
54429;DHT22;40337;52.978;6.310;2023-04-01T05:03:41;9.90;99.90
54429;DHT22;40337;52.978;6.310;2023-04-01T05:06:08;9.90;99.90
54429;DHT22;40337;52.978;6.310;2023-04-01T05:08:34;9.90;99.90
54429;DHT22;40337;52.978;6.310;2023-04-01T05:11:01;9.90;99.90
54429;DHT22;40337;52.978;6.310;2023-04-01T05:13:28;9.90;99.90
54429;DHT22;40337;52.978;6.310;2023-04-01T05:15:53;9.90;99.90
54429;DHT22;40337;52.978;6.310;2023-04-01T05:18:19;9.90;99.90
54429;DHT22;40337;52.978;6.310;2023-04-01T05:20:53;10.00;99.90
54429;DHT22;40337;52.978;6.310;2023-04-01T05:23:20;10.00;99.90
54429;DHT22;40337;52.978;6.310;2023-04-01T05:25:48;9.90;99.90
54429;DHT22;40337;52.978;6.310;2023-04-01T05:28:13;10.00;99.90
54429;DHT22;40337;52.978;6.310;2023-04-01T05:30:43;10.00;99.90
54429;DHT22;40337;52.978;6.310;2023-04-01T05:33:10;10.00;99.90
54429;DHT22;40337;52.978;6.310;2023-04-01T05:35:36;10.00;99.90
54429;DHT22;40337;52.978;6.310;2023-04-01T05:38:02;10.00;99.90
54429;DHT22;40337;52.978;6.310;2023-04-01T05:40:28;10.00;99.90
54429;DHT22;40337;52.978;6.310;2023-04-01T05:42:54;10.10;99.90
54429;DHT22;40337;52.978;6.310;2023-04-01T05:45:19;10.00;99.90
54429;DHT22;40337;52.978;6.310;2023-04-01T05:47:45;10.10;99.90
54429;DHT22;40337;52.978;6.310;2023-04-01T05:50:11;10.00;99.90
54429;DHT22;40337;52.978;6.310;2023-04-01T05:52:37;10.10;99.90
54429;DHT22;40337;52.978;6.310;2023-04-01T05:55:03;10.10;99.90
54429;DHT22;40337;52.978;6.310;2023-04-01T05:57:29;10.10;99.90
54429;DHT22;40337;52.978;6.310;2023-04-01T05:59:55;10.10;99.90
54429;DHT22;40337;52.978;6.310;2023-04-01T06:02:21;10.10;99.90
54429;DHT22;40337;52.978;6.310;2023-04-01T06:04:46;10.10;99.90
54429;DHT22;40337;52.978;6.310;2023-04-01T06:07:17;10.10;99.90
54429;DHT22;40337;52.978;6.310;2023-04-01T06:09:44;10.20;99.90
54429;DHT22;40337;52.978;6.310;2023-04-01T06:15:00;10.20;99.90
54429;DHT22;40337;52.978;6.310;2023-04-01T06:17:48;10.20;99.90
54429;DHT22;40337;52.978;6.310;2023-04-01T06:20:43;10.20;99.90
54429;DHT22;40337;52.978;6.310;2023-04-01T06:25:50;10.10;99.90
54429;DHT22;40337;52.978;6.310;2023-04-01T06:31:32;10.20;99.90
54429;DHT22;40337;52.978;6.310;2023-04-01T06:43:19;10.20;99.90
54429;DHT22;40337;52.978;6.310;2023-04-01T06:46:23;10.10;99.90
54429;DHT22;40337;52.978;6.310;2023-04-01T06:52:13;10.10;99.90
54429;DHT22;40337;52.978;6.310;2023-04-01T06:54:48;10.10;99.90
54429;DHT22;40337;52.978;6.310;2023-04-01T06:59:40;10.10;99.90
54429;DHT22;40337;52.978;6.310;2023-04-01T07:02:22;10.10;99.90
54429;DHT22;40337;52.978;6.310;2023-04-01T07:04:51;10.10;99.90
54429;DHT22;40337;52.978;6.310;2023-04-01T07:07:33;10.10;99.90
54429;DHT22;40337;52.978;6.310;2023-04-01T07:10:04;10.10;99.90
54429;DHT22;40337;52.978;6.310;2023-04-01T07:12:53;10.10;99.90
54429;DHT22;40337;52.978;6.310;2023-04-01T07:15:24;10.10;99.90
54429;DHT22;40337;52.978;6.310;2023-04-01T07:17:58;10.10;99.90
54429;DHT22;40337;52.978;6.310;2023-04-01T07:20:32;10.10;99.90
54429;DHT22;40337;52.978;6.310;2023-04-01T07:23:25;10.10;99.90
54429;DHT22;40337;52.978;6.310;2023-04-01T07:26:07;10.10;99.90
54429;DHT22;40337;52.978;6.310;2023-04-01T07:28:36;10.10;99.90
54429;DHT22;40337;52.978;6.310;2023-04-01T07:37:05;10.10;99.90
54429;DHT22;40337;52.978;6.310;2023-04-01T07:39:53;10.10;99.90
54429;DHT22;40337;52.978;6.310;2023-04-01T07:50:49;10.30;99.90
54429;DHT22;40337;52.978;6.310;2023-04-01T07:53:31;10.30;99.90
54429;DHT22;40337;52.978;6.310;2023-04-01T07:56:23;10.30;99.90
54429;DHT22;40337;52.978;6.310;2023-04-01T08:04:34;10.30;99.90
54429;DHT22;40337;52.978;6.310;2023-04-01T08:09:44;10.40;99.90
54429;DHT22;40337;52.978;6.310;2023-04-01T08:12:42;10.50;99.90
54429;DHT22;40337;52.978;6.310;2023-04-01T08:18:01;10.50;99.90
54429;DHT22;40337;52.978;6.310;2023-04-01T08:23:15;10.60;99.90
54429;DHT22;40337;52.978;6.310;2023-04-01T08:26:02;10.50;99.90
54429;DHT22;40337;52.978;6.310;2023-04-01T08:28:41;10.60;99.90
54429;DHT22;40337;52.978;6.310;2023-04-01T08:31:23;10.60;99.90
54429;DHT22;40337;52.978;6.310;2023-04-01T08:33:53;10.60;99.90
54429;DHT22;40337;52.978;6.310;2023-04-01T08:36:32;10.70;99.90
54429;DHT22;40337;52.978;6.310;2023-04-01T08:39:09;10.80;99.90
54429;DHT22;40337;52.978;6.310;2023-04-01T08:41:55;10.80;99.90
54429;DHT22;40337;52.978;6.310;2023-04-01T08:44:40;10.80;99.90
54429;DHT22;40337;52.978;6.310;2023-04-01T08:50:43;11.00;99.90
54429;DHT22;40337;52.978;6.310;2023-04-01T08:56:18;11.10;99.90
54429;DHT22;40337;52.978;6.310;2023-04-01T09:12:56;11.40;99.90
54429;DHT22;40337;52.978;6.310;2023-04-01T09:15:47;11.40;99.90
54429;DHT22;40337;52.978;6.310;2023-04-01T09:32:16;11.10;99.90
54429;DHT22;40337;52.978;6.310;2023-04-01T09:41:01;11.10;99.90
54429;DHT22;40337;52.978;6.310;2023-04-01T09:44:00;11.20;99.90
54429;DHT22;40337;52.978;6.310;2023-04-01T09:46:32;11.20;99.90
54429;DHT22;40337;52.978;6.310;2023-04-01T09:49:17;11.20;99.90
54429;DHT22;40337;52.978;6.310;2023-04-01T09:51:53;11.40;99.90
54429;DHT22;40337;52.978;6.310;2023-04-01T10:14:45;11.70;99.90
54429;DHT22;40337;52.978;6.310;2023-04-01T10:23:22;12.00;99.90
54429;DHT22;40337;52.978;6.310;2023-04-01T10:25:55;11.90;99.90
54429;DHT22;40337;52.978;6.310;2023-04-01T10:50:56;11.30;99.90
54429;DHT22;40337;52.978;6.310;2023-04-01T10:56:50;11.20;99.90
54429;DHT22;40337;52.978;6.310;2023-04-01T11:02:32;11.10;99.90
54429;DHT22;40337;52.978;6.310;2023-04-01T11:10:39;10.80;99.90
54429;DHT22;40337;52.978;6.310;2023-04-01T11:16:21;10.80;99.90
54429;DHT22;40337;52.978;6.310;2023-04-01T11:19:00;10.80;99.90
54429;DHT22;40337;52.978;6.310;2023-04-01T11:25:09;10.90;99.90
54429;DHT22;40337;52.978;6.310;2023-04-01T11:33:53;10.80;99.90
54429;DHT22;40337;52.978;6.310;2023-04-01T11:36:46;10.80;99.90
54429;DHT22;40337;52.978;6.310;2023-04-01T11:39:58;10.80;99.90
54429;DHT22;40337;52.978;6.310;2023-04-01T12:05:23;10.80;99.90
54429;DHT22;40337;52.978;6.310;2023-04-01T12:14:15;10.90;99.90
54429;DHT22;40337;52.978;6.310;2023-04-01T12:16:58;11.00;99.90
54429;DHT22;40337;52.978;6.310;2023-04-01T12:19:35;11.00;99.90
54429;DHT22;40337;52.978;6.310;2023-04-01T12:25:03;11.20;99.90
54429;DHT22;40337;52.978;6.310;2023-04-01T12:30:30;11.30;99.90
54429;DHT22;40337;52.978;6.310;2023-04-01T12:46:43;11.20;99.90
54429;DHT22;40337;52.978;6.310;2023-04-01T12:49:34;11.20;99.90
54429;DHT22;40337;52.978;6.310;2023-04-01T12:52:23;11.20;99.90
54429;DHT22;40337;52.978;6.310;2023-04-01T12:55:12;11.10;99.90
54429;DHT22;40337;52.978;6.310;2023-04-01T12:58:12;11.10;99.90
54429;DHT22;40337;52.978;6.310;2023-04-01T13:07:13;11.00;99.90
54429;DHT22;40337;52.978;6.310;2023-04-01T13:10:07;11.00;99.90
54429;DHT22;40337;52.978;6.310;2023-04-01T13:20:43;11.00;99.90
54429;DHT22;40337;52.978;6.310;2023-04-01T13:26:32;10.90;99.90
54429;DHT22;40337;52.978;6.310;2023-04-01T13:31:36;10.80;99.90
54429;DHT22;40337;52.978;6.310;2023-04-01T13:37:41;10.70;99.90
54429;DHT22;40337;52.978;6.310;2023-04-01T13:40:26;10.60;99.90
54429;DHT22;40337;52.978;6.310;2023-04-01T13:48:34;10.50;99.90
54429;DHT22;40337;52.978;6.310;2023-04-01T13:51:21;10.40;99.90
54429;DHT22;40337;52.978;6.310;2023-04-01T13:56:38;10.30;99.90
54429;DHT22;40337;52.978;6.310;2023-04-01T13:59:46;10.20;99.90
54429;DHT22;40337;52.978;6.310;2023-04-01T14:02:47;10.20;99.90
54429;DHT22;40337;52.978;6.310;2023-04-01T14:08:24;10.10;99.90
54429;DHT22;40337;52.978;6.310;2023-04-01T14:13:56;10.00;99.90
54429;DHT22;40337;52.978;6.310;2023-04-01T14:25:12;10.00;99.90
54429;DHT22;40337;52.978;6.310;2023-04-01T14:30:33;10.30;99.90
54429;DHT22;40337;52.978;6.310;2023-04-01T14:41:43;9.90;99.90
54429;DHT22;40337;52.978;6.310;2023-04-01T14:50:09;9.90;99.90
54429;DHT22;40337;52.978;6.310;2023-04-01T14:52:40;9.80;99.90
54429;DHT22;40337;52.978;6.310;2023-04-01T14:55:26;9.80;99.90
54429;DHT22;40337;52.978;6.310;2023-04-01T14:58:00;9.80;99.90
54429;DHT22;40337;52.978;6.310;2023-04-01T15:00:45;9.70;99.90
54429;DHT22;40337;52.978;6.310;2023-04-01T15:05:50;9.70;99.90
54429;DHT22;40337;52.978;6.310;2023-04-01T15:08:21;9.70;99.90
54429;DHT22;40337;52.978;6.310;2023-04-01T15:11:16;9.70;99.90
54429;DHT22;40337;52.978;6.310;2023-04-01T15:14:21;9.70;99.90
54429;DHT22;40337;52.978;6.310;2023-04-01T15:26:03;9.70;99.90
54429;DHT22;40337;52.978;6.310;2023-04-01T15:28:39;9.60;99.90
54429;DHT22;40337;52.978;6.310;2023-04-01T15:31:16;9.60;99.90
54429;DHT22;40337;52.978;6.310;2023-04-01T15:36:42;9.50;99.90
54429;DHT22;40337;52.978;6.310;2023-04-01T15:39:20;9.40;99.90
54429;DHT22;40337;52.978;6.310;2023-04-01T15:42:16;9.40;99.90
54429;DHT22;40337;52.978;6.310;2023-04-01T15:47:36;9.40;99.90
54429;DHT22;40337;52.978;6.310;2023-04-01T15:50:26;9.40;99.90
54429;DHT22;40337;52.978;6.310;2023-04-01T15:55:48;9.30;99.90
54429;DHT22;40337;52.978;6.310;2023-04-01T16:01:18;9.30;99.90
54429;DHT22;40337;52.978;6.310;2023-04-01T16:04:05;9.20;99.90
54429;DHT22;40337;52.978;6.310;2023-04-01T16:06:50;9.20;99.90
54429;DHT22;40337;52.978;6.310;2023-04-01T16:09:24;9.20;99.90
54429;DHT22;40337;52.978;6.310;2023-04-01T16:12:01;9.10;99.90
54429;DHT22;40337;52.978;6.310;2023-04-01T16:14:52;9.10;99.90
54429;DHT22;40337;52.978;6.310;2023-04-01T16:23:13;9.00;99.90
54429;DHT22;40337;52.978;6.310;2023-04-01T16:25:51;9.00;99.90
54429;DHT22;40337;52.978;6.310;2023-04-01T16:28:29;9.00;99.90
54429;DHT22;40337;52.978;6.310;2023-04-01T16:33:32;8.90;99.90
54429;DHT22;40337;52.978;6.310;2023-04-01T16:41:49;8.70;99.90
54429;DHT22;40337;52.978;6.310;2023-04-01T16:44:19;8.70;99.90
54429;DHT22;40337;52.978;6.310;2023-04-01T16:46:51;8.70;99.90
54429;DHT22;40337;52.978;6.310;2023-04-01T16:49:40;8.60;99.90
54429;DHT22;40337;52.978;6.310;2023-04-01T16:57:27;8.60;99.90
54429;DHT22;40337;52.978;6.310;2023-04-01T17:00:02;8.50;99.90
54429;DHT22;40337;52.978;6.310;2023-04-01T17:02:38;8.50;99.90
54429;DHT22;40337;52.978;6.310;2023-04-01T17:05:13;8.40;99.90
54429;DHT22;40337;52.978;6.310;2023-04-01T17:10:40;8.30;99.90
54429;DHT22;40337;52.978;6.310;2023-04-01T17:13:34;8.30;99.90
54429;DHT22;40337;52.978;6.310;2023-04-01T17:19:37;8.20;99.90
54429;DHT22;40337;52.978;6.310;2023-04-01T17:22:44;8.20;99.90
54429;DHT22;40337;52.978;6.310;2023-04-01T17:25:25;8.20;99.90
54429;DHT22;40337;52.978;6.310;2023-04-01T17:28:26;8.10;99.90
54429;DHT22;40337;52.978;6.310;2023-04-01T17:36:21;8.10;99.90
54429;DHT22;40337;52.978;6.310;2023-04-01T17:47:11;7.90;99.90
54429;DHT22;40337;52.978;6.310;2023-04-01T17:56:00;7.80;99.90
54429;DHT22;40337;52.978;6.310;2023-04-01T17:58:28;7.80;99.90
54429;DHT22;40337;52.978;6.310;2023-04-01T18:04:17;7.70;99.90
54429;DHT22;40337;52.978;6.310;2023-04-01T18:16:03;7.60;99.90
54429;DHT22;40337;52.978;6.310;2023-04-01T18:23:55;7.50;99.90
54429;DHT22;40337;52.978;6.310;2023-04-01T18:26:28;7.40;99.90
54429;DHT22;40337;52.978;6.310;2023-04-01T18:29:17;7.40;99.90
54429;DHT22;40337;52.978;6.310;2023-04-01T18:31:52;7.40;99.90
54429;DHT22;40337;52.978;6.310;2023-04-01T18:35:01;7.30;99.90
54429;DHT22;40337;52.978;6.310;2023-04-01T18:37:39;7.30;99.90
54429;DHT22;40337;52.978;6.310;2023-04-01T18:46:27;7.30;99.90
54429;DHT22;40337;52.978;6.310;2023-04-01T18:52:22;7.20;99.90
54429;DHT22;40337;52.978;6.310;2023-04-01T18:57:38;7.20;99.90
54429;DHT22;40337;52.978;6.310;2023-04-01T19:00:21;7.20;99.90
54429;DHT22;40337;52.978;6.310;2023-04-01T19:03:02;7.20;99.90
54429;DHT22;40337;52.978;6.310;2023-04-01T19:05:40;7.20;99.90
54429;DHT22;40337;52.978;6.310;2023-04-01T19:08:39;7.20;99.90
54429;DHT22;40337;52.978;6.310;2023-04-01T19:11:26;7.20;99.90
54429;DHT22;40337;52.978;6.310;2023-04-01T19:14:02;7.20;99.90
54429;DHT22;40337;52.978;6.310;2023-04-01T19:16:49;7.20;99.90
54429;DHT22;40337;52.978;6.310;2023-04-01T19:22:44;7.20;99.90
54429;DHT22;40337;52.978;6.310;2023-04-01T19:27:45;7.10;99.90
54429;DHT22;40337;52.978;6.310;2023-04-01T19:30:16;7.10;99.90
54429;DHT22;40337;52.978;6.310;2023-04-01T19:36:20;7.10;99.90
54429;DHT22;40337;52.978;6.310;2023-04-01T19:39:09;7.20;99.90
54429;DHT22;40337;52.978;6.310;2023-04-01T19:41:57;7.20;99.90
54429;DHT22;40337;52.978;6.310;2023-04-01T19:45:17;7.10;99.90
54429;DHT22;40337;52.978;6.310;2023-04-01T19:51:00;7.10;99.90
54429;DHT22;40337;52.978;6.310;2023-04-01T19:56:21;7.00;99.90
54429;DHT22;40337;52.978;6.310;2023-04-01T19:59:13;7.00;99.90
54429;DHT22;40337;52.978;6.310;2023-04-01T20:04:22;6.90;99.90
54429;DHT22;40337;52.978;6.310;2023-04-01T20:12:43;6.80;99.90
54429;DHT22;40337;52.978;6.310;2023-04-01T20:18:15;6.70;99.90
54429;DHT22;40337;52.978;6.310;2023-04-01T20:20:55;6.70;99.90
54429;DHT22;40337;52.978;6.310;2023-04-01T20:26:11;6.70;99.90
54429;DHT22;40337;52.978;6.310;2023-04-01T20:31:41;6.60;99.90
54429;DHT22;40337;52.978;6.310;2023-04-01T20:37:32;6.50;99.90
54429;DHT22;40337;52.978;6.310;2023-04-01T20:40:26;6.50;99.90
54429;DHT22;40337;52.978;6.310;2023-04-01T20:42:58;6.40;99.90
54429;DHT22;40337;52.978;6.310;2023-04-01T20:45:32;6.40;99.90
54429;DHT22;40337;52.978;6.310;2023-04-01T20:48:06;6.40;99.90
54429;DHT22;40337;52.978;6.310;2023-04-01T20:50:57;6.40;99.90
54429;DHT22;40337;52.978;6.310;2023-04-01T20:53:34;6.40;99.90
54429;DHT22;40337;52.978;6.310;2023-04-01T20:56:40;6.40;99.90
54429;DHT22;40337;52.978;6.310;2023-04-01T20:59:16;6.40;99.90
54429;DHT22;40337;52.978;6.310;2023-04-01T21:07:58;6.30;99.90
54429;DHT22;40337;52.978;6.310;2023-04-01T21:10:40;6.30;99.90
54429;DHT22;40337;52.978;6.310;2023-04-01T21:16:08;6.30;99.90
54429;DHT22;40337;52.978;6.310;2023-04-01T21:21:22;6.20;99.90
54429;DHT22;40337;52.978;6.310;2023-04-01T21:32:17;6.20;99.90
54429;DHT22;40337;52.978;6.310;2023-04-01T21:43:50;6.20;99.90
54429;DHT22;40337;52.978;6.310;2023-04-01T21:54:45;6.20;99.90
54429;DHT22;40337;52.978;6.310;2023-04-01T22:00:16;6.10;99.90
54429;DHT22;40337;52.978;6.310;2023-04-01T22:02:49;6.20;99.90
54429;DHT22;40337;52.978;6.310;2023-04-01T22:05:40;6.10;99.90
54429;DHT22;40337;52.978;6.310;2023-04-01T22:14:26;6.10;99.90
54429;DHT22;40337;52.978;6.310;2023-04-01T22:17:31;6.10;99.90
54429;DHT22;40337;52.978;6.310;2023-04-01T22:28:37;6.00;99.90
54429;DHT22;40337;52.978;6.310;2023-04-01T22:31:05;6.00;99.90
54429;DHT22;40337;52.978;6.310;2023-04-01T22:41:55;6.00;99.90
54429;DHT22;40337;52.978;6.310;2023-04-01T22:47:16;5.90;99.90
54429;DHT22;40337;52.978;6.310;2023-04-01T22:49:59;5.90;99.90
54429;DHT22;40337;52.978;6.310;2023-04-01T22:52:39;5.90;99.90
54429;DHT22;40337;52.978;6.310;2023-04-01T22:55:30;5.90;99.90
54429;DHT22;40337;52.978;6.310;2023-04-01T22:58:04;5.90;99.90
54429;DHT22;40337;52.978;6.310;2023-04-01T23:00:39;5.80;99.90
54429;DHT22;40337;52.978;6.310;2023-04-01T23:05:58;5.80;99.90
54429;DHT22;40337;52.978;6.310;2023-04-01T23:11:06;5.70;99.90
54429;DHT22;40337;52.978;6.310;2023-04-01T23:13:43;5.70;99.90
54429;DHT22;40337;52.978;6.310;2023-04-01T23:16:11;5.70;99.90
54429;DHT22;40337;52.978;6.310;2023-04-01T23:21:34;5.60;99.90
54429;DHT22;40337;52.978;6.310;2023-04-01T23:27:12;5.50;99.90
54429;DHT22;40337;52.978;6.310;2023-04-01T23:29:41;5.50;99.90
54429;DHT22;40337;52.978;6.310;2023-04-01T23:32:18;5.40;99.90
54429;DHT22;40337;52.978;6.310;2023-04-01T23:34:50;5.40;99.90
54429;DHT22;40337;52.978;6.310;2023-04-01T23:37:17;5.40;99.90
54429;DHT22;40337;52.978;6.310;2023-04-01T23:40:12;5.40;99.90
54429;DHT22;40337;52.978;6.310;2023-04-01T23:42:39;5.40;99.90
54429;DHT22;40337;52.978;6.310;2023-04-01T23:45:13;5.40;99.90
54429;DHT22;40337;52.978;6.310;2023-04-01T23:47:40;5.40;99.90
54429;DHT22;40337;52.978;6.310;2023-04-01T23:50:10;5.40;99.90
54429;DHT22;40337;52.978;6.310;2023-04-01T23:52:43;5.40;99.90
54429;DHT22;40337;52.978;6.310;2023-04-01T23:55:25;5.40;99.90
54429;DHT22;40337;52.978;6.310;2023-04-01T23:58:12;5.40;99.90
